sensor_id;sensor_type;location;lat;lon;timestamp;P1;durP1;ratioP1;P2;durP2;ratioP2
21677;SDS011;11000;50.360;7.582;2023-02-01T00:00:06;6.07;;;4.50;;
21677;SDS011;11000;50.360;7.582;2023-02-01T00:02:27;5.60;;;5.00;;
21677;SDS011;11000;50.360;7.582;2023-02-01T00:04:48;5.80;;;4.90;;
21677;SDS011;11000;50.360;7.582;2023-02-01T00:07:08;6.07;;;4.13;;
21677;SDS011;11000;50.360;7.582;2023-02-01T00:09:29;5.43;;;4.20;;
21677;SDS011;11000;50.360;7.582;2023-02-01T00:11:49;4.63;;;3.83;;
21677;SDS011;11000;50.360;7.582;2023-02-01T00:14:10;5.13;;;3.83;;
21677;SDS011;11000;50.360;7.582;2023-02-01T00:16:31;3.60;;;3.27;;
21677;SDS011;11000;50.360;7.582;2023-02-01T00:18:55;3.50;;;3.20;;
21677;SDS011;11000;50.360;7.582;2023-02-01T00:21:19;4.40;;;4.00;;
21677;SDS011;11000;50.360;7.582;2023-02-01T00:23:40;4.37;;;3.97;;
21677;SDS011;11000;50.360;7.582;2023-02-01T00:26:02;6.97;;;5.00;;
21677;SDS011;11000;50.360;7.582;2023-02-01T00:28:24;7.23;;;5.13;;
21677;SDS011;11000;50.360;7.582;2023-02-01T00:30:44;6.03;;;5.47;;
21677;SDS011;11000;50.360;7.582;2023-02-01T00:33:05;8.03;;;6.13;;
21677;SDS011;11000;50.360;7.582;2023-02-01T00:35:25;9.80;;;6.87;;
21677;SDS011;11000;50.360;7.582;2023-02-01T00:37:46;9.63;;;7.07;;
21677;SDS011;11000;50.360;7.582;2023-02-01T00:40:06;8.50;;;6.60;;
21677;SDS011;11000;50.360;7.582;2023-02-01T00:42:27;10.80;;;7.03;;
21677;SDS011;11000;50.360;7.582;2023-02-01T00:44:49;9.17;;;7.87;;
21677;SDS011;11000;50.360;7.582;2023-02-01T00:47:09;8.13;;;6.90;;
21677;SDS011;11000;50.360;7.582;2023-02-01T00:49:30;11.17;;;8.27;;
21677;SDS011;11000;50.360;7.582;2023-02-01T00:51:50;10.10;;;7.63;;
21677;SDS011;11000;50.360;7.582;2023-02-01T00:54:11;8.43;;;7.47;;
21677;SDS011;11000;50.360;7.582;2023-02-01T00:56:31;9.30;;;7.60;;
21677;SDS011;11000;50.360;7.582;2023-02-01T00:58:52;9.70;;;7.57;;
21677;SDS011;11000;50.360;7.582;2023-02-01T01:01:14;10.40;;;8.23;;
21677;SDS011;11000;50.360;7.582;2023-02-01T01:03:41;8.33;;;7.37;;
21677;SDS011;11000;50.360;7.582;2023-02-01T01:06:04;10.07;;;7.60;;
21677;SDS011;11000;50.360;7.582;2023-02-01T01:08:27;8.23;;;7.07;;
21677;SDS011;11000;50.360;7.582;2023-02-01T01:10:47;8.17;;;7.20;;
21677;SDS011;11000;50.360;7.582;2023-02-01T01:13:09;9.70;;;7.30;;
21677;SDS011;11000;50.360;7.582;2023-02-01T01:15:29;8.07;;;7.27;;
21677;SDS011;11000;50.360;7.582;2023-02-01T01:17:50;8.73;;;7.50;;
21677;SDS011;11000;50.360;7.582;2023-02-01T01:20:11;9.80;;;7.57;;
21677;SDS011;11000;50.360;7.582;2023-02-01T01:22:31;9.40;;;6.83;;
21677;SDS011;11000;50.360;7.582;2023-02-01T01:24:52;9.60;;;7.53;;
21677;SDS011;11000;50.360;7.582;2023-02-01T01:27:12;7.37;;;6.57;;
21677;SDS011;11000;50.360;7.582;2023-02-01T01:29:33;10.03;;;7.50;;
21677;SDS011;11000;50.360;7.582;2023-02-01T01:31:54;8.47;;;6.73;;
21677;SDS011;11000;50.360;7.582;2023-02-01T01:34:15;8.77;;;6.20;;
21677;SDS011;11000;50.360;7.582;2023-02-01T01:36:35;6.63;;;5.70;;
21677;SDS011;11000;50.360;7.582;2023-02-01T01:38:56;6.10;;;5.33;;
21677;SDS011;11000;50.360;7.582;2023-02-01T01:41:20;7.10;;;6.03;;
21677;SDS011;11000;50.360;7.582;2023-02-01T01:43:56;5.93;;;5.33;;
21677;SDS011;11000;50.360;7.582;2023-02-01T01:46:19;7.33;;;4.93;;
21677;SDS011;11000;50.360;7.582;2023-02-01T01:48:41;6.97;;;5.10;;
21677;SDS011;11000;50.360;7.582;2023-02-01T01:51:06;6.27;;;4.90;;
21677;SDS011;11000;50.360;7.582;2023-02-01T01:53:31;5.83;;;4.37;;
21677;SDS011;11000;50.360;7.582;2023-02-01T01:55:54;5.57;;;4.37;;
21677;SDS011;11000;50.360;7.582;2023-02-01T01:58:17;5.77;;;4.30;;
21677;SDS011;11000;50.360;7.582;2023-02-01T02:00:40;5.43;;;4.13;;
21677;SDS011;11000;50.360;7.582;2023-02-01T02:03:35;4.73;;;4.23;;
21677;SDS011;11000;50.360;7.582;2023-02-01T02:05:54;4.50;;;4.10;;
21677;SDS011;11000;50.360;7.582;2023-02-01T02:08:18;5.73;;;4.03;;
21677;SDS011;11000;50.360;7.582;2023-02-01T02:10:40;7.33;;;3.93;;
21677;SDS011;11000;50.360;7.582;2023-02-01T02:13:19;4.87;;;3.87;;
21677;SDS011;11000;50.360;7.582;2023-02-01T02:15:42;5.10;;;3.80;;
21677;SDS011;11000;50.360;7.582;2023-02-01T02:18:12;5.03;;;3.37;;
21677;SDS011;11000;50.360;7.582;2023-02-01T02:20:46;5.17;;;3.40;;
21677;SDS011;11000;50.360;7.582;2023-02-01T02:40:25;5.97;;;3.67;;
21677;SDS011;11000;50.360;7.582;2023-02-01T02:43:03;5.27;;;3.37;;
21677;SDS011;11000;50.360;7.582;2023-02-01T02:45:51;4.87;;;3.00;;
21677;SDS011;11000;50.360;7.582;2023-02-01T02:48:47;4.97;;;3.10;;
21677;SDS011;11000;50.360;7.582;2023-02-01T02:51:20;4.53;;;2.63;;
21677;SDS011;11000;50.360;7.582;2023-02-01T02:54:07;8.17;;;2.87;;
21677;SDS011;11000;50.360;7.582;2023-02-01T02:56:53;4.57;;;3.00;;
21677;SDS011;11000;50.360;7.582;2023-02-01T02:59:33;5.27;;;2.77;;
21677;SDS011;11000;50.360;7.582;2023-02-01T03:02:13;2.93;;;2.63;;
21677;SDS011;11000;50.360;7.582;2023-02-01T03:04:54;7.17;;;3.03;;
21677;SDS011;11000;50.360;7.582;2023-02-01T03:12:44;4.83;;;3.00;;
21677;SDS011;11000;50.360;7.582;2023-02-01T03:15:17;4.70;;;2.73;;
21677;SDS011;11000;50.360;7.582;2023-02-01T03:17:39;4.03;;;2.70;;
21677;SDS011;11000;50.360;7.582;2023-02-01T03:20:01;4.73;;;2.83;;
21677;SDS011;11000;50.360;7.582;2023-02-01T03:22:26;3.83;;;2.67;;
21677;SDS011;11000;50.360;7.582;2023-02-01T03:24:51;6.43;;;3.23;;
21677;SDS011;11000;50.360;7.582;2023-02-01T03:28:15;5.17;;;2.93;;
21677;SDS011;11000;50.360;7.582;2023-02-01T03:30:15;7.37;;;3.07;;
21677;SDS011;11000;50.360;7.582;2023-02-01T03:32:40;3.70;;;2.30;;
21677;SDS011;11000;50.360;7.582;2023-02-01T03:35:23;8.00;;;3.07;;
21677;SDS011;11000;50.360;7.582;2023-02-01T03:37:45;3.63;;;2.70;;
21677;SDS011;11000;50.360;7.582;2023-02-01T03:40:07;5.43;;;3.57;;
21677;SDS011;11000;50.360;7.582;2023-02-01T03:42:34;4.53;;;3.10;;
21677;SDS011;11000;50.360;7.582;2023-02-01T03:45:04;5.43;;;3.10;;
21677;SDS011;11000;50.360;7.582;2023-02-01T03:47:30;4.53;;;3.27;;
21677;SDS011;11000;50.360;7.582;2023-02-01T03:50:00;4.43;;;2.67;;
21677;SDS011;11000;50.360;7.582;2023-02-01T03:52:32;4.00;;;3.00;;
21677;SDS011;11000;50.360;7.582;2023-02-01T03:55:04;6.17;;;2.90;;
21677;SDS011;11000;50.360;7.582;2023-02-01T03:57:27;6.93;;;3.10;;
21677;SDS011;11000;50.360;7.582;2023-02-01T03:59:52;5.17;;;3.10;;
21677;SDS011;11000;50.360;7.582;2023-02-01T04:02:13;6.63;;;2.90;;
21677;SDS011;11000;50.360;7.582;2023-02-01T04:04:34;3.43;;;2.47;;
21677;SDS011;11000;50.360;7.582;2023-02-01T04:06:55;8.13;;;3.10;;
21677;SDS011;11000;50.360;7.582;2023-02-01T04:09:16;5.07;;;2.77;;
21677;SDS011;11000;50.360;7.582;2023-02-01T04:11:37;6.03;;;3.33;;
21677;SDS011;11000;50.360;7.582;2023-02-01T04:13:57;8.17;;;4.03;;
21677;SDS011;11000;50.360;7.582;2023-02-01T04:16:18;6.13;;;3.03;;
21677;SDS011;11000;50.360;7.582;2023-02-01T04:18:38;5.77;;;2.77;;
21677;SDS011;11000;50.360;7.582;2023-02-01T04:20:59;5.50;;;2.90;;
21677;SDS011;11000;50.360;7.582;2023-02-01T04:23:21;7.53;;;3.13;;
21677;SDS011;11000;50.360;7.582;2023-02-01T04:25:41;8.00;;;3.20;;
21677;SDS011;11000;50.360;7.582;2023-02-01T04:28:02;10.90;;;3.07;;
21677;SDS011;11000;50.360;7.582;2023-02-01T04:30:22;9.93;;;3.03;;
21677;SDS011;11000;50.360;7.582;2023-02-01T04:32:43;7.03;;;2.60;;
21677;SDS011;11000;50.360;7.582;2023-02-01T04:35:04;9.77;;;3.60;;
21677;SDS011;11000;50.360;7.582;2023-02-01T04:37:25;6.67;;;2.90;;
21677;SDS011;11000;50.360;7.582;2023-02-01T04:39:46;10.07;;;3.00;;
21677;SDS011;11000;50.360;7.582;2023-02-01T04:42:06;10.20;;;2.83;;
21677;SDS011;11000;50.360;7.582;2023-02-01T04:44:27;6.83;;;2.80;;
21677;SDS011;11000;50.360;7.582;2023-02-01T04:46:47;9.20;;;3.53;;
21677;SDS011;11000;50.360;7.582;2023-02-01T04:49:08;8.63;;;3.77;;
21677;SDS011;11000;50.360;7.582;2023-02-01T04:51:30;11.80;;;3.30;;
21677;SDS011;11000;50.360;7.582;2023-02-01T04:53:50;11.03;;;3.40;;
21677;SDS011;11000;50.360;7.582;2023-02-01T04:56:11;11.27;;;3.50;;
21677;SDS011;11000;50.360;7.582;2023-02-01T04:58:31;12.47;;;3.30;;
21677;SDS011;11000;50.360;7.582;2023-02-01T05:00:52;12.07;;;3.40;;
21677;SDS011;11000;50.360;7.582;2023-02-01T05:03:13;7.33;;;3.20;;
21677;SDS011;11000;50.360;7.582;2023-02-01T05:05:33;15.03;;;3.57;;
21677;SDS011;11000;50.360;7.582;2023-02-01T05:07:54;12.07;;;3.33;;
21677;SDS011;11000;50.360;7.582;2023-02-01T05:10:15;9.23;;;3.53;;
21677;SDS011;11000;50.360;7.582;2023-02-01T05:12:36;9.50;;;3.63;;
21677;SDS011;11000;50.360;7.582;2023-02-01T05:15:15;8.90;;;3.43;;
21677;SDS011;11000;50.360;7.582;2023-02-01T05:17:35;7.00;;;3.60;;
21677;SDS011;11000;50.360;7.582;2023-02-01T05:19:56;9.70;;;3.33;;
21677;SDS011;11000;50.360;7.582;2023-02-01T05:22:17;11.47;;;3.80;;
21677;SDS011;11000;50.360;7.582;2023-02-01T05:24:37;9.43;;;3.80;;
21677;SDS011;11000;50.360;7.582;2023-02-01T05:26:58;11.27;;;3.67;;
21677;SDS011;11000;50.360;7.582;2023-02-01T05:29:18;10.03;;;3.47;;
21677;SDS011;11000;50.360;7.582;2023-02-01T05:31:39;15.33;;;3.80;;
21677;SDS011;11000;50.360;7.582;2023-02-01T05:33:59;11.83;;;3.73;;
21677;SDS011;11000;50.360;7.582;2023-02-01T05:36:20;9.73;;;3.77;;
21677;SDS011;11000;50.360;7.582;2023-02-01T05:38:41;12.50;;;3.77;;
21677;SDS011;11000;50.360;7.582;2023-02-01T05:41:01;11.13;;;4.07;;
21677;SDS011;11000;50.360;7.582;2023-02-01T05:43:22;16.13;;;3.90;;
21677;SDS011;11000;50.360;7.582;2023-02-01T05:45:42;12.90;;;3.53;;
21677;SDS011;11000;50.360;7.582;2023-02-01T05:48:03;13.90;;;3.77;;
21677;SDS011;11000;50.360;7.582;2023-02-01T05:50:24;12.10;;;3.83;;
21677;SDS011;11000;50.360;7.582;2023-02-01T05:52:44;13.27;;;4.27;;
21677;SDS011;11000;50.360;7.582;2023-02-01T05:55:05;14.97;;;4.40;;
21677;SDS011;11000;50.360;7.582;2023-02-01T05:57:25;16.23;;;3.57;;
21677;SDS011;11000;50.360;7.582;2023-02-01T05:59:46;8.40;;;3.97;;
21677;SDS011;11000;50.360;7.582;2023-02-01T06:02:08;20.90;;;4.80;;
21677;SDS011;11000;50.360;7.582;2023-02-01T06:04:29;12.83;;;4.43;;
21677;SDS011;11000;50.360;7.582;2023-02-01T06:06:50;10.57;;;3.67;;
21677;SDS011;11000;50.360;7.582;2023-02-01T06:09:11;15.40;;;5.47;;
21677;SDS011;11000;50.360;7.582;2023-02-01T06:11:31;12.43;;;3.60;;
21677;SDS011;11000;50.360;7.582;2023-02-01T06:13:52;15.73;;;4.40;;
21677;SDS011;11000;50.360;7.582;2023-02-01T06:16:12;13.50;;;3.37;;
21677;SDS011;11000;50.360;7.582;2023-02-01T06:18:35;11.30;;;3.73;;
21677;SDS011;11000;50.360;7.582;2023-02-01T06:20:56;12.60;;;3.63;;
21677;SDS011;11000;50.360;7.582;2023-02-01T06:23:20;13.30;;;3.77;;
21677;SDS011;11000;50.360;7.582;2023-02-01T06:25:43;11.93;;;3.67;;
21677;SDS011;11000;50.360;7.582;2023-02-01T06:28:05;11.90;;;3.30;;
21677;SDS011;11000;50.360;7.582;2023-02-01T06:30:25;13.73;;;3.63;;
21677;SDS011;11000;50.360;7.582;2023-02-01T06:32:49;12.27;;;3.60;;
21677;SDS011;11000;50.360;7.582;2023-02-01T06:35:13;11.47;;;3.60;;
21677;SDS011;11000;50.360;7.582;2023-02-01T06:37:37;11.27;;;3.23;;
21677;SDS011;11000;50.360;7.582;2023-02-01T06:39:57;11.73;;;3.50;;
21677;SDS011;11000;50.360;7.582;2023-02-01T06:42:18;10.00;;;3.20;;
21677;SDS011;11000;50.360;7.582;2023-02-01T06:44:39;10.03;;;3.70;;
21677;SDS011;11000;50.360;7.582;2023-02-01T06:46:59;12.70;;;3.10;;
21677;SDS011;11000;50.360;7.582;2023-02-01T06:49:20;9.17;;;3.17;;
21677;SDS011;11000;50.360;7.582;2023-02-01T06:51:41;15.93;;;3.60;;
21677;SDS011;11000;50.360;7.582;2023-02-01T06:54:01;14.47;;;3.60;;
21677;SDS011;11000;50.360;7.582;2023-02-01T06:56:22;14.33;;;3.43;;
21677;SDS011;11000;50.360;7.582;2023-02-01T06:58:43;14.77;;;3.33;;
21677;SDS011;11000;50.360;7.582;2023-02-01T07:01:05;15.53;;;3.07;;
21677;SDS011;11000;50.360;7.582;2023-02-01T07:03:27;13.70;;;3.83;;
21677;SDS011;11000;50.360;7.582;2023-02-01T07:05:47;8.60;;;3.00;;
21677;SDS011;11000;50.360;7.582;2023-02-01T07:08:08;8.73;;;3.23;;
21677;SDS011;11000;50.360;7.582;2023-02-01T07:10:28;12.43;;;3.63;;
21677;SDS011;11000;50.360;7.582;2023-02-01T07:12:49;10.30;;;3.20;;
21677;SDS011;11000;50.360;7.582;2023-02-01T07:15:09;16.70;;;4.37;;
21677;SDS011;11000;50.360;7.582;2023-02-01T07:17:30;15.93;;;3.70;;
21677;SDS011;11000;50.360;7.582;2023-02-01T07:19:50;17.27;;;3.73;;
21677;SDS011;11000;50.360;7.582;2023-02-01T07:22:11;10.53;;;3.00;;
21677;SDS011;11000;50.360;7.582;2023-02-01T07:24:33;15.30;;;3.27;;
21677;SDS011;11000;50.360;7.582;2023-02-01T07:26:54;13.17;;;3.10;;
21677;SDS011;11000;50.360;7.582;2023-02-01T07:29:14;14.43;;;3.67;;
21677;SDS011;11000;50.360;7.582;2023-02-01T07:31:35;15.83;;;2.93;;
21677;SDS011;11000;50.360;7.582;2023-02-01T07:33:55;14.00;;;3.37;;
21677;SDS011;11000;50.360;7.582;2023-02-01T07:36:17;11.23;;;2.83;;
21677;SDS011;11000;50.360;7.582;2023-02-01T07:38:39;12.20;;;3.00;;
21677;SDS011;11000;50.360;7.582;2023-02-01T07:41:00;12.17;;;3.33;;
21677;SDS011;11000;50.360;7.582;2023-02-01T07:43:22;11.57;;;2.80;;
21677;SDS011;11000;50.360;7.582;2023-02-01T07:45:43;9.70;;;3.30;;
21677;SDS011;11000;50.360;7.582;2023-02-01T07:48:11;14.70;;;3.30;;
21677;SDS011;11000;50.360;7.582;2023-02-01T07:50:31;12.87;;;3.20;;
21677;SDS011;11000;50.360;7.582;2023-02-01T07:52:52;7.93;;;2.90;;
21677;SDS011;11000;50.360;7.582;2023-02-01T07:55:13;15.03;;;3.10;;
21677;SDS011;11000;50.360;7.582;2023-02-01T07:57:33;15.90;;;3.17;;
21677;SDS011;11000;50.360;7.582;2023-02-01T07:59:54;15.77;;;3.50;;
21677;SDS011;11000;50.360;7.582;2023-02-01T08:02:33;15.17;;;3.40;;
21677;SDS011;11000;50.360;7.582;2023-02-01T08:04:54;15.10;;;3.80;;
21677;SDS011;11000;50.360;7.582;2023-02-01T08:07:14;14.27;;;2.77;;
21677;SDS011;11000;50.360;7.582;2023-02-01T08:09:35;15.47;;;3.93;;
21677;SDS011;11000;50.360;7.582;2023-02-01T08:11:55;11.17;;;2.97;;
21677;SDS011;11000;50.360;7.582;2023-02-01T08:14:16;11.30;;;3.40;;
21677;SDS011;11000;50.360;7.582;2023-02-01T08:16:36;9.80;;;3.37;;
21677;SDS011;11000;50.360;7.582;2023-02-01T08:18:59;10.97;;;3.00;;
21677;SDS011;11000;50.360;7.582;2023-02-01T08:21:21;13.87;;;3.20;;
21677;SDS011;11000;50.360;7.582;2023-02-01T08:23:43;11.90;;;3.00;;
21677;SDS011;11000;50.360;7.582;2023-02-01T08:26:05;13.97;;;3.10;;
21677;SDS011;11000;50.360;7.582;2023-02-01T08:28:34;15.00;;;3.47;;
21677;SDS011;11000;50.360;7.582;2023-02-01T08:30:55;12.37;;;3.10;;
21677;SDS011;11000;50.360;7.582;2023-02-01T08:33:16;12.80;;;3.20;;
21677;SDS011;11000;50.360;7.582;2023-02-01T08:35:36;11.37;;;3.03;;
21677;SDS011;11000;50.360;7.582;2023-02-01T08:37:58;12.53;;;3.17;;
21677;SDS011;11000;50.360;7.582;2023-02-01T08:40:18;10.17;;;2.93;;
21677;SDS011;11000;50.360;7.582;2023-02-01T08:42:41;11.00;;;3.23;;
21677;SDS011;11000;50.360;7.582;2023-02-01T08:45:10;15.40;;;3.13;;
21677;SDS011;11000;50.360;7.582;2023-02-01T08:47:31;8.23;;;3.27;;
21677;SDS011;11000;50.360;7.582;2023-02-01T08:49:52;11.93;;;4.83;;
21677;SDS011;11000;50.360;7.582;2023-02-01T08:52:13;12.07;;;3.27;;
21677;SDS011;11000;50.360;7.582;2023-02-01T08:54:34;10.07;;;2.60;;
21677;SDS011;11000;50.360;7.582;2023-02-01T08:56:55;13.20;;;3.00;;
21677;SDS011;11000;50.360;7.582;2023-02-01T08:59:16;12.60;;;2.67;;
21677;SDS011;11000;50.360;7.582;2023-02-01T09:01:36;17.43;;;3.60;;
21677;SDS011;11000;50.360;7.582;2023-02-01T09:03:57;11.90;;;3.17;;
21677;SDS011;11000;50.360;7.582;2023-02-01T09:06:18;8.30;;;2.87;;
21677;SDS011;11000;50.360;7.582;2023-02-01T09:08:39;8.83;;;2.83;;
21677;SDS011;11000;50.360;7.582;2023-02-01T09:11:00;10.67;;;2.90;;
21677;SDS011;11000;50.360;7.582;2023-02-01T09:13:22;8.73;;;2.70;;
21677;SDS011;11000;50.360;7.582;2023-02-01T09:15:43;13.10;;;2.80;;
21677;SDS011;11000;50.360;7.582;2023-02-01T09:18:03;11.53;;;3.03;;
21677;SDS011;11000;50.360;7.582;2023-02-01T09:20:24;11.73;;;3.10;;
21677;SDS011;11000;50.360;7.582;2023-02-01T09:22:45;7.03;;;2.80;;
21677;SDS011;11000;50.360;7.582;2023-02-01T09:25:06;12.60;;;3.30;;
21677;SDS011;11000;50.360;7.582;2023-02-01T09:27:27;11.10;;;3.70;;
21677;SDS011;11000;50.360;7.582;2023-02-01T09:29:48;11.17;;;3.60;;
21677;SDS011;11000;50.360;7.582;2023-02-01T09:32:12;12.57;;;3.20;;
21677;SDS011;11000;50.360;7.582;2023-02-01T09:34:32;20.47;;;3.67;;
21677;SDS011;11000;50.360;7.582;2023-02-01T09:36:53;16.73;;;3.73;;
21677;SDS011;11000;50.360;7.582;2023-02-01T09:39:14;16.93;;;2.97;;
21677;SDS011;11000;50.360;7.582;2023-02-01T09:41:43;9.37;;;3.00;;
21677;SDS011;11000;50.360;7.582;2023-02-01T09:47:00;9.03;;;3.83;;
21677;SDS011;11000;50.360;7.582;2023-02-01T09:49:23;15.27;;;3.77;;
21677;SDS011;11000;50.360;7.582;2023-02-01T09:51:51;10.30;;;3.00;;
21677;SDS011;11000;50.360;7.582;2023-02-01T09:54:55;11.47;;;2.83;;
21677;SDS011;11000;50.360;7.582;2023-02-01T09:57:28;9.67;;;2.87;;
21677;SDS011;11000;50.360;7.582;2023-02-01T10:00:00;10.43;;;3.13;;
21677;SDS011;11000;50.360;7.582;2023-02-01T10:02:26;9.07;;;2.90;;
21677;SDS011;11000;50.360;7.582;2023-02-01T10:04:50;16.97;;;3.57;;
21677;SDS011;11000;50.360;7.582;2023-02-01T10:09:39;15.40;;;3.70;;
21677;SDS011;11000;50.360;7.582;2023-02-01T10:25:36;11.77;;;2.93;;
21677;SDS011;11000;50.360;7.582;2023-02-01T10:28:02;13.10;;;3.00;;
21677;SDS011;11000;50.360;7.582;2023-02-01T10:30:25;12.20;;;3.00;;
21677;SDS011;11000;50.360;7.582;2023-02-01T10:33:16;13.37;;;3.13;;
21677;SDS011;11000;50.360;7.582;2023-02-01T10:35:35;10.47;;;3.27;;
21677;SDS011;11000;50.360;7.582;2023-02-01T10:38:00;14.70;;;2.90;;
21677;SDS011;11000;50.360;7.582;2023-02-01T10:40:23;11.40;;;3.10;;
21677;SDS011;11000;50.360;7.582;2023-02-01T10:42:45;8.40;;;2.47;;
21677;SDS011;11000;50.360;7.582;2023-02-01T10:45:06;13.30;;;2.83;;
21677;SDS011;11000;50.360;7.582;2023-02-01T10:47:32;12.13;;;3.07;;
21677;SDS011;11000;50.360;7.582;2023-02-01T10:50:06;12.27;;;3.63;;
21677;SDS011;11000;50.360;7.582;2023-02-01T10:52:51;11.07;;;3.60;;
21677;SDS011;11000;50.360;7.582;2023-02-01T10:57:56;11.03;;;2.97;;
21677;SDS011;11000;50.360;7.582;2023-02-01T11:00:20;9.53;;;2.93;;
21677;SDS011;11000;50.360;7.582;2023-02-01T11:02:41;12.10;;;3.13;;
21677;SDS011;11000;50.360;7.582;2023-02-01T11:05:03;8.80;;;3.00;;
21677;SDS011;11000;50.360;7.582;2023-02-01T11:07:26;12.37;;;3.30;;
21677;SDS011;11000;50.360;7.582;2023-02-01T11:09:50;10.37;;;2.70;;
21677;SDS011;11000;50.360;7.582;2023-02-01T11:12:31;14.43;;;3.57;;
21677;SDS011;11000;50.360;7.582;2023-02-01T11:17:44;13.73;;;3.27;;
21677;SDS011;11000;50.360;7.582;2023-02-01T11:20:09;12.67;;;2.77;;
21677;SDS011;11000;50.360;7.582;2023-02-01T11:22:35;9.93;;;3.17;;
21677;SDS011;11000;50.360;7.582;2023-02-01T11:24:56;12.77;;;2.93;;
21677;SDS011;11000;50.360;7.582;2023-02-01T11:27:20;12.27;;;3.77;;
21677;SDS011;11000;50.360;7.582;2023-02-01T11:29:43;9.00;;;2.63;;
21677;SDS011;11000;50.360;7.582;2023-02-01T11:32:08;15.80;;;3.00;;
21677;SDS011;11000;50.360;7.582;2023-02-01T11:34:41;14.53;;;3.30;;
21677;SDS011;11000;50.360;7.582;2023-02-01T11:37:13;13.73;;;2.60;;
21677;SDS011;11000;50.360;7.582;2023-02-01T11:39:41;8.73;;;2.60;;
21677;SDS011;11000;50.360;7.582;2023-02-01T11:42:17;10.13;;;2.80;;
21677;SDS011;11000;50.360;7.582;2023-02-01T11:44:39;10.77;;;3.17;;
21677;SDS011;11000;50.360;7.582;2023-02-01T11:49:44;10.73;;;3.23;;
21677;SDS011;11000;50.360;7.582;2023-02-01T11:52:14;12.20;;;3.07;;
21677;SDS011;11000;50.360;7.582;2023-02-01T12:03:04;11.53;;;3.13;;
21677;SDS011;11000;50.360;7.582;2023-02-01T12:13:23;16.33;;;2.97;;
21677;SDS011;11000;50.360;7.582;2023-02-01T12:18:27;10.43;;;2.43;;
21677;SDS011;11000;50.360;7.582;2023-02-01T12:21:20;15.67;;;3.00;;
21677;SDS011;11000;50.360;7.582;2023-02-01T12:24:19;13.50;;;2.93;;
21677;SDS011;11000;50.360;7.582;2023-02-01T12:30:36;9.53;;;2.97;;
21677;SDS011;11000;50.360;7.582;2023-02-01T12:41:27;11.70;;;3.20;;
21677;SDS011;11000;50.360;7.582;2023-02-01T12:44:02;12.60;;;3.00;;
21677;SDS011;11000;50.360;7.582;2023-02-01T12:48:58;12.73;;;2.87;;
21677;SDS011;11000;50.360;7.582;2023-02-01T12:51:52;12.93;;;2.70;;
21677;SDS011;11000;50.360;7.582;2023-02-01T12:57:04;12.40;;;2.40;;
21677;SDS011;11000;50.360;7.582;2023-02-01T13:00:02;14.90;;;2.87;;
21677;SDS011;11000;50.360;7.582;2023-02-01T13:02:39;12.53;;;2.90;;
21677;SDS011;11000;50.360;7.582;2023-02-01T13:07:41;12.80;;;2.67;;
21677;SDS011;11000;50.360;7.582;2023-02-01T13:10:38;12.13;;;2.70;;
21677;SDS011;11000;50.360;7.582;2023-02-01T13:13:07;8.87;;;2.20;;
21677;SDS011;11000;50.360;7.582;2023-02-01T13:15:39;18.00;;;4.70;;
21677;SDS011;11000;50.360;7.582;2023-02-01T13:18:04;7.03;;;2.10;;
21677;SDS011;11000;50.360;7.582;2023-02-01T13:23:11;10.07;;;2.67;;
21677;SDS011;11000;50.360;7.582;2023-02-01T13:28:14;10.10;;;2.43;;
21677;SDS011;11000;50.360;7.582;2023-02-01T13:41:53;12.90;;;2.10;;
21677;SDS011;11000;50.360;7.582;2023-02-01T13:44:42;14.10;;;2.33;;
21677;SDS011;11000;50.360;7.582;2023-02-01T13:49:44;7.80;;;2.30;;
21677;SDS011;11000;50.360;7.582;2023-02-01T13:52:05;8.03;;;2.57;;
21677;SDS011;11000;50.360;7.582;2023-02-01T13:56:53;7.53;;;1.83;;
21677;SDS011;11000;50.360;7.582;2023-02-01T14:05:00;6.73;;;1.90;;
21677;SDS011;11000;50.360;7.582;2023-02-01T14:07:21;8.53;;;1.83;;
21677;SDS011;11000;50.360;7.582;2023-02-01T14:09:42;10.27;;;2.43;;
21677;SDS011;11000;50.360;7.582;2023-02-01T14:15:21;6.63;;;2.10;;
21677;SDS011;11000;50.360;7.582;2023-02-01T14:17:46;8.60;;;1.70;;
21677;SDS011;11000;50.360;7.582;2023-02-01T14:23:11;8.67;;;2.00;;
21677;SDS011;11000;50.360;7.582;2023-02-01T14:25:37;6.60;;;2.00;;
21677;SDS011;11000;50.360;7.582;2023-02-01T14:27:57;8.20;;;2.03;;
21677;SDS011;11000;50.360;7.582;2023-02-01T14:30:18;9.73;;;2.23;;
21677;SDS011;11000;50.360;7.582;2023-02-01T14:32:40;12.27;;;2.17;;
21677;SDS011;11000;50.360;7.582;2023-02-01T14:35:04;7.93;;;1.57;;
21677;SDS011;11000;50.360;7.582;2023-02-01T14:37:31;8.33;;;1.73;;
21677;SDS011;11000;50.360;7.582;2023-02-01T14:40:02;9.17;;;2.60;;
21677;SDS011;11000;50.360;7.582;2023-02-01T14:47:54;12.23;;;2.50;;
21677;SDS011;11000;50.360;7.582;2023-02-01T14:55:42;6.87;;;2.03;;
21677;SDS011;11000;50.360;7.582;2023-02-01T14:58:10;8.43;;;2.10;;
21677;SDS011;11000;50.360;7.582;2023-02-01T15:00:38;8.93;;;1.90;;
21677;SDS011;11000;50.360;7.582;2023-02-01T15:05:55;7.10;;;2.20;;
21677;SDS011;11000;50.360;7.582;2023-02-01T15:08:18;11.50;;;2.10;;
21677;SDS011;11000;50.360;7.582;2023-02-01T15:10:44;7.90;;;2.20;;
21677;SDS011;11000;50.360;7.582;2023-02-01T15:13:12;9.50;;;2.37;;
21677;SDS011;11000;50.360;7.582;2023-02-01T15:15:42;7.83;;;1.80;;
21677;SDS011;11000;50.360;7.582;2023-02-01T15:18:03;8.67;;;2.57;;
21677;SDS011;11000;50.360;7.582;2023-02-01T15:20:25;8.07;;;2.63;;
21677;SDS011;11000;50.360;7.582;2023-02-01T15:22:58;8.43;;;2.30;;
21677;SDS011;11000;50.360;7.582;2023-02-01T15:25:20;9.70;;;1.67;;
21677;SDS011;11000;50.360;7.582;2023-02-01T15:27:43;9.50;;;2.33;;
21677;SDS011;11000;50.360;7.582;2023-02-01T15:30:07;7.87;;;2.47;;
21677;SDS011;11000;50.360;7.582;2023-02-01T15:32:33;8.60;;;2.23;;
21677;SDS011;11000;50.360;7.582;2023-02-01T15:34:57;11.83;;;2.60;;
21677;SDS011;11000;50.360;7.582;2023-02-01T15:37:20;6.33;;;2.00;;
21677;SDS011;11000;50.360;7.582;2023-02-01T15:42:30;9.70;;;2.13;;
21677;SDS011;11000;50.360;7.582;2023-02-01T15:44:51;11.90;;;2.43;;
21677;SDS011;11000;50.360;7.582;2023-02-01T15:47:14;9.27;;;2.33;;
21677;SDS011;11000;50.360;7.582;2023-02-01T15:49:37;8.37;;;2.27;;
21677;SDS011;11000;50.360;7.582;2023-02-01T15:52:00;12.80;;;3.03;;
21677;SDS011;11000;50.360;7.582;2023-02-01T15:54:24;8.53;;;2.27;;
21677;SDS011;11000;50.360;7.582;2023-02-01T15:56:49;7.97;;;2.60;;
21677;SDS011;11000;50.360;7.582;2023-02-01T15:59:14;15.67;;;2.90;;
21677;SDS011;11000;50.360;7.582;2023-02-01T16:01:37;10.53;;;3.07;;
21677;SDS011;11000;50.360;7.582;2023-02-01T16:04:10;9.30;;;2.53;;
21677;SDS011;11000;50.360;7.582;2023-02-01T16:06:44;7.97;;;3.30;;
21677;SDS011;11000;50.360;7.582;2023-02-01T16:09:12;12.03;;;2.30;;
21677;SDS011;11000;50.360;7.582;2023-02-01T16:11:39;11.80;;;2.57;;
21677;SDS011;11000;50.360;7.582;2023-02-01T16:14:21;9.33;;;1.90;;
21677;SDS011;11000;50.360;7.582;2023-02-01T16:16:41;6.50;;;2.00;;
21677;SDS011;11000;50.360;7.582;2023-02-01T16:19:02;11.70;;;2.40;;
21677;SDS011;11000;50.360;7.582;2023-02-01T16:21:23;9.90;;;1.93;;
21677;SDS011;11000;50.360;7.582;2023-02-01T16:23:47;7.73;;;2.53;;
21677;SDS011;11000;50.360;7.582;2023-02-01T16:26:08;8.23;;;2.17;;
21677;SDS011;11000;50.360;7.582;2023-02-01T16:28:30;9.70;;;2.17;;
21677;SDS011;11000;50.360;7.582;2023-02-01T16:30:51;11.23;;;2.10;;
21677;SDS011;11000;50.360;7.582;2023-02-01T16:33:13;9.13;;;2.70;;
21677;SDS011;11000;50.360;7.582;2023-02-01T16:35:39;5.67;;;2.23;;
21677;SDS011;11000;50.360;7.582;2023-02-01T16:38:00;6.10;;;2.13;;
21677;SDS011;11000;50.360;7.582;2023-02-01T16:40:20;9.30;;;2.37;;
21677;SDS011;11000;50.360;7.582;2023-02-01T16:42:42;10.43;;;2.23;;